createdAt,value
2022-12-14T00:01:24.817Z,78.55
2022-12-14T00:03:52.818Z,76.68
2022-12-14T00:06:22.242Z,77.66
2022-12-14T00:08:50.933Z,78.38
2022-12-14T00:11:19.761Z,78.22
2022-12-14T00:13:48.835Z,77.58
2022-12-14T00:16:18.124Z,78.27
2022-12-14T00:18:48.625Z,77.32
2022-12-14T00:21:15.109Z,77.35
2022-12-14T00:23:43.227Z,77.61
2022-12-14T00:26:18.070Z,77.09
2022-12-14T00:28:45.877Z,77.02
2022-12-14T00:31:12.950Z,76.37
2022-12-14T00:33:40.444Z,76.98
2022-12-14T00:36:09.745Z,77.46
2022-12-14T00:38:37.291Z,78.65
2022-12-14T00:41:04.994Z,78.17
2022-12-14T00:43:32.059Z,76.29
2022-12-14T00:45:58.644Z,76.30
2022-12-14T00:48:26.508Z,77.07
2022-12-14T00:50:54.909Z,77.50
2022-12-14T00:53:22.354Z,76.09
2022-12-14T00:55:50.708Z,76.28
2022-12-14T00:58:22.295Z,78.02
2022-12-14T01:00:59.235Z,78.42
2022-12-14T01:03:26.090Z,78.56
2022-12-14T01:05:52.942Z,77.00
2022-12-14T01:08:20.157Z,77.21
2022-12-14T01:10:46.636Z,77.89
2022-12-14T01:13:13.083Z,76.93
2022-12-14T01:15:39.638Z,75.16
2022-12-14T01:18:06.123Z,76.86
2022-12-14T01:20:32.684Z,76.64
2022-12-14T01:22:59.287Z,77.01
2022-12-14T01:25:26.307Z,77.22
2022-12-14T01:27:52.820Z,75.42
2022-12-14T01:30:19.518Z,75.76
2022-12-14T01:32:47.113Z,74.19
2022-12-14T01:35:13.644Z,75.95
2022-12-14T01:37:40.107Z,75.89
2022-12-14T01:40:07.149Z,76.17
2022-12-14T01:42:38.123Z,74.96
2022-12-14T01:45:05.886Z,75.92
2022-12-14T01:47:43.776Z,73.95
2022-12-14T01:50:35.205Z,75.94
2022-12-14T01:53:08.593Z,75.26
2022-12-14T01:55:42.080Z,76.30
2022-12-14T01:58:17.088Z,77.17
2022-12-14T02:00:44.643Z,75.98
2022-12-14T02:03:38.896Z,75.22
2022-12-14T02:06:10.721Z,73.89
2022-12-14T02:08:39.345Z,73.06
2022-12-14T02:11:05.962Z,74.63
2022-12-14T02:13:38.867Z,74.76
2022-12-14T02:16:05.708Z,74.09
2022-12-14T02:18:32.852Z,74.23
2022-12-14T02:21:18.576Z,74.16
2022-12-14T02:23:57.161Z,72.27
2022-12-14T02:26:57.661Z,73.54
2022-12-14T02:29:27.140Z,74.14
2022-12-14T02:32:21.660Z,75.00
2022-12-14T02:35:19.118Z,76.36
2022-12-14T02:38:07.930Z,74.78
2022-12-14T02:41:10.398Z,74.91
2022-12-14T02:43:36.832Z,75.53
2022-12-14T02:46:15.572Z,75.50
2022-12-14T02:48:50.191Z,75.44
2022-12-14T02:51:38.228Z,76.07
2022-12-14T02:54:13.171Z,76.63
2022-12-14T02:56:53.065Z,76.33
2022-12-14T02:59:20.257Z,76.00
2022-12-14T03:01:50.320Z,77.23
2022-12-14T03:04:18.558Z,77.65
2022-12-14T03:06:57.794Z,78.94
2022-12-14T03:09:27.042Z,79.10
2022-12-14T03:12:03.231Z,79.87
2022-12-14T03:14:35.640Z,79.49
2022-12-14T03:17:19.018Z,81.04
2022-12-14T03:19:58.733Z,82.44
2022-12-14T03:22:40.201Z,82.12
2022-12-14T03:25:12.908Z,82.69
2022-12-14T03:27:44.630Z,82.74
2022-12-14T03:30:27.123Z,82.32
2022-12-14T03:33:15.921Z,82.52
2022-12-14T03:35:49.392Z,81.99
2022-12-14T03:38:38.885Z,81.58
2022-12-14T03:41:18.446Z,84.31
2022-12-14T03:44:08.467Z,83.56
2022-12-14T03:46:52.361Z,84.42
2022-12-14T03:49:50.085Z,83.94
2022-12-14T03:52:28.881Z,83.64
2022-12-14T03:55:20.766Z,83.59
2022-12-14T03:58:22.995Z,83.63
2022-12-14T04:01:00.445Z,84.94
2022-12-14T04:03:54.454Z,85.32
2022-12-14T04:06:39.600Z,83.05
2022-12-14T04:09:27.892Z,83.88
2022-12-14T04:12:22.075Z,84.62
2022-12-14T04:15:15.161Z,84.07
2022-12-14T04:18:03.247Z,84.36
2022-12-14T04:20:44.207Z,83.50
2022-12-14T04:23:37.173Z,84.03
2022-12-14T04:26:09.078Z,83.43
2022-12-14T04:29:09.599Z,83.97
2022-12-14T04:31:39.769Z,83.85
2022-12-14T04:34:10.112Z,84.28
2022-12-14T04:36:45.395Z,83.02
2022-12-14T04:39:18.477Z,83.42
2022-12-14T04:41:49.548Z,82.86
2022-12-14T04:44:24.369Z,83.53
2022-12-14T04:46:54.067Z,83.92
2022-12-14T04:49:27.195Z,82.94
2022-12-14T04:52:14.635Z,83.69
2022-12-14T04:54:53.333Z,83.84
2022-12-14T04:57:25.638Z,83.13
2022-12-14T04:59:52.496Z,84.11
2022-12-14T05:02:34.150Z,82.63
2022-12-14T05:05:21.887Z,81.28
2022-12-14T05:08:06.880Z,81.96
2022-12-14T05:10:44.083Z,83.56
2022-12-14T05:13:18.890Z,83.54
2022-12-14T05:15:50.169Z,82.33
2022-12-14T05:18:17.421Z,83.19
2022-12-14T05:20:43.882Z,84.06
2022-12-14T05:23:10.314Z,83.32
2022-12-14T05:25:36.774Z,82.14
2022-12-14T05:28:03.505Z,82.40
2022-12-14T05:30:30.427Z,84.36
2022-12-14T05:32:57.464Z,85.60
2022-12-14T05:35:23.977Z,84.93
2022-12-14T05:37:50.608Z,85.89
2022-12-14T05:40:17.164Z,86.03
2022-12-14T05:42:46.042Z,86.62
2022-12-14T05:45:15.394Z,86.30
2022-12-14T05:47:41.860Z,86.29
2022-12-14T05:50:09.093Z,85.24
2022-12-14T05:52:35.599Z,85.23
2022-12-14T05:55:04.469Z,85.49
2022-12-14T05:57:31.557Z,84.97
2022-12-14T05:59:58.052Z,85.14
2022-12-14T06:02:24.689Z,87.07
2022-12-14T06:04:51.315Z,88.01
2022-12-14T06:07:20.625Z,89.48
2022-12-14T06:09:49.534Z,87.02
2022-12-14T06:12:16.052Z,88.27
2022-12-14T06:14:42.560Z,87.74
2022-12-14T06:17:09.098Z,90.40
2022-12-14T06:19:35.569Z,91.27
2022-12-14T06:22:02.015Z,92.92
2022-12-14T06:24:28.474Z,93.07
2022-12-14T06:26:55.124Z,92.96
2022-12-14T06:29:21.722Z,93.29
2022-12-14T06:31:49.154Z,94.39
2022-12-14T06:34:17.570Z,94.07
2022-12-14T06:36:44.282Z,94.59
2022-12-14T06:39:13.172Z,92.08
2022-12-14T06:41:40.691Z,92.69
2022-12-14T06:44:11.046Z,94.85
2022-12-14T06:46:38.834Z,93.13
2022-12-14T06:49:06.384Z,95.81
2022-12-14T06:51:39.348Z,93.83
2022-12-14T06:54:06.596Z,93.14
2022-12-14T06:56:33.221Z,93.74
2022-12-14T06:58:59.763Z,92.94
2022-12-14T07:01:26.453Z,95.03
2022-12-14T07:03:55.816Z,92.92
2022-12-14T07:06:24.509Z,93.70
2022-12-14T07:08:54.473Z,95.04
2022-12-14T07:11:21.719Z,93.33
2022-12-14T07:13:49.166Z,93.78
2022-12-14T07:16:24.699Z,93.87
2022-12-14T07:18:52.400Z,95.14
2022-12-14T07:21:20.574Z,96.87
2022-12-14T07:23:48.224Z,97.62
2022-12-14T07:26:21.532Z,99.01
2022-12-14T07:28:48.814Z,99.48
2022-12-14T07:31:21.895Z,100.00
2022-12-14T07:33:49.230Z,100.00
2022-12-14T07:36:18.219Z,100.00
2022-12-14T07:38:46.561Z,100.00
2022-12-14T07:41:22.076Z,100.00
2022-12-14T07:43:49.936Z,100.00
2022-12-14T07:46:22.241Z,100.00
2022-12-14T07:48:50.916Z,100.00
2022-12-14T07:51:20.918Z,100.00
2022-12-14T07:53:47.884Z,100.00
2022-12-14T07:56:19.913Z,100.00
2022-12-14T07:58:46.754Z,100.00
2022-12-14T08:01:25.953Z,100.00
2022-12-14T08:03:55.835Z,100.00
2022-12-14T08:06:24.199Z,100.00
2022-12-14T08:08:51.748Z,100.00
2022-12-14T08:11:18.810Z,100.00
2022-12-14T08:13:46.809Z,100.00
2022-12-14T08:16:15.609Z,100.00
2022-12-14T08:18:43.228Z,100.00
2022-12-14T08:21:12.522Z,100.00
2022-12-14T08:23:39.135Z,100.00
2022-12-14T08:26:06.521Z,100.00
2022-12-14T08:28:34.516Z,100.00
2022-12-14T08:31:06.634Z,100.00
2022-12-14T08:33:35.395Z,100.00
2022-12-14T08:36:10.134Z,100.00
2022-12-14T08:38:37.460Z,100.00
2022-12-14T08:41:12.050Z,100.00
2022-12-14T08:43:39.292Z,100.00
2022-12-14T08:46:06.845Z,100.00
2022-12-14T08:48:33.391Z,100.00
2022-12-14T08:51:08.387Z,100.00
2022-12-14T08:53:36.315Z,100.00
2022-12-14T08:56:08.334Z,100.00
2022-12-14T08:58:36.327Z,100.00
2022-12-14T09:01:04.652Z,100.00
2022-12-14T09:03:34.076Z,100.00
2022-12-14T09:06:08.955Z,100.00
2022-12-14T09:08:36.028Z,100.00
2022-12-14T09:11:04.445Z,100.00
2022-12-14T09:13:32.258Z,100.00
2022-12-14T09:16:01.607Z,100.00
2022-12-14T09:18:28.971Z,100.00
2022-12-14T09:20:56.105Z,99.20
2022-12-14T09:23:24.500Z,98.79
2022-12-14T09:26:07.524Z,97.19
2022-12-14T09:28:37.331Z,96.57
2022-12-14T09:31:07.409Z,95.82
2022-12-14T09:33:34.210Z,94.70
2022-12-14T09:36:06.447Z,94.74
2022-12-14T09:38:35.806Z,95.24
2022-12-14T09:41:07.446Z,95.69
2022-12-14T09:43:39.970Z,96.78
2022-12-14T09:46:25.116Z,97.03
2022-12-14T09:48:53.090Z,98.56
2022-12-14T09:51:22.564Z,96.63
2022-12-14T09:54:02.732Z,95.82
2022-12-14T09:56:29.527Z,95.95
2022-12-14T09:59:01.876Z,95.50
2022-12-14T10:02:13.891Z,94.29
2022-12-14T10:04:55.415Z,96.19
2022-12-14T10:07:41.699Z,95.74
2022-12-14T10:10:24.049Z,93.80
2022-12-14T10:13:13.230Z,94.44
2022-12-14T10:15:42.415Z,94.27
2022-12-14T10:18:57.813Z,94.08
2022-12-14T10:21:23.467Z,94.42
2022-12-14T10:24:03.411Z,92.84
2022-12-14T10:26:41.121Z,93.95
2022-12-14T10:29:12.888Z,93.48
2022-12-14T10:32:17.476Z,94.48
2022-12-14T10:34:44.110Z,94.60
2022-12-14T10:37:30.359Z,93.80
2022-12-14T10:40:00.222Z,97.23
2022-12-14T10:43:15.199Z,97.46
2022-12-14T10:46:10.110Z,97.69
2022-12-14T10:48:49.024Z,96.16
2022-12-14T10:51:37.571Z,97.46
2022-12-14T10:54:22.616Z,98.05
2022-12-14T10:56:50.606Z,98.59
2022-12-14T10:59:33.611Z,100.00
2022-12-14T11:02:14.124Z,99.49
2022-12-14T11:04:49.924Z,100.00
2022-12-14T11:07:18.704Z,100.00
2022-12-14T11:09:45.812Z,100.00
2022-12-14T11:12:26.899Z,99.75
2022-12-14T11:15:00.679Z,98.50
2022-12-14T11:17:35.546Z,100.00
2022-12-14T11:20:19.689Z,100.00
2022-12-14T11:22:55.692Z,100.00
2022-12-14T11:25:33.570Z,100.00
2022-12-14T11:28:05.661Z,100.00
2022-12-14T11:30:32.315Z,100.00
2022-12-14T11:32:58.942Z,100.00
2022-12-14T11:35:25.540Z,100.00
2022-12-14T11:37:59.423Z,100.00
2022-12-14T11:40:27.334Z,100.00
2022-12-14T11:43:03.107Z,98.97
2022-12-14T11:45:32.562Z,98.83
2022-12-14T11:48:15.938Z,99.14
2022-12-14T11:50:44.559Z,99.06
2022-12-14T11:53:16.229Z,100.00
2022-12-14T11:56:04.734Z,100.00
2022-12-14T11:58:46.174Z,100.00
2022-12-14T12:01:18.549Z,100.00
2022-12-14T12:03:49.093Z,98.38
2022-12-14T12:06:22.464Z,98.96
2022-12-14T12:08:56.091Z,98.30
2022-12-14T12:11:26.391Z,99.02
2022-12-14T12:13:59.307Z,99.89
2022-12-14T12:16:28.115Z,99.87
2022-12-14T12:19:05.216Z,98.39
2022-12-14T12:21:40.217Z,96.57
2022-12-14T12:24:09.380Z,96.72
2022-12-14T12:26:41.320Z,95.11
2022-12-14T12:29:31.581Z,92.68
2022-12-14T12:32:00.772Z,93.75
2022-12-14T12:34:44.667Z,92.61
2022-12-14T12:37:27.596Z,92.43
2022-12-14T12:40:00.544Z,90.22
2022-12-14T12:42:34.776Z,90.78
2022-12-14T12:45:12.842Z,89.75
2022-12-14T12:47:48.494Z,92.25
2022-12-14T12:50:19.374Z,89.69
2022-12-14T12:53:05.365Z,89.11
2022-12-14T12:55:36.756Z,88.58
2022-12-14T12:58:09.425Z,89.99
2022-12-14T13:00:38.203Z,89.24
2022-12-14T13:03:15.860Z,89.83
2022-12-14T13:05:46.647Z,90.63
2022-12-14T13:08:23.475Z,90.50
2022-12-14T13:13:45.212Z,90.50
2022-12-14T13:16:24.620Z,92.19
2022-12-14T13:19:04.797Z,90.40
2022-12-14T13:21:47.905Z,91.56
2022-12-14T13:24:19.130Z,93.24
2022-12-14T13:27:12.318Z,92.82
2022-12-14T13:29:50.543Z,92.10
2022-12-14T13:32:37.934Z,91.25
2022-12-14T13:35:29.198Z,91.20
2022-12-14T13:38:01.818Z,91.11
2022-12-14T13:40:56.901Z,91.48
2022-12-14T13:44:14.935Z,92.16
2022-12-14T13:46:41.932Z,93.42
2022-12-14T13:49:19.361Z,93.37
2022-12-14T13:51:50.087Z,92.41
2022-12-14T13:54:33.079Z,93.10
2022-12-14T13:57:07.960Z,92.93
2022-12-14T13:59:42.284Z,93.32
2022-12-14T14:02:27.306Z,94.75
2022-12-14T14:05:16.264Z,94.94
2022-12-14T14:08:09.070Z,94.56
2022-12-14T14:10:38.117Z,95.75
2022-12-14T14:13:29.423Z,96.47
2022-12-14T14:18:49.884Z,95.23
2022-12-14T14:21:22.455Z,95.68
2022-12-14T14:23:58.500Z,96.09
2022-12-14T14:26:27.990Z,95.20
2022-12-14T14:29:13.301Z,94.87
2022-12-14T14:31:46.128Z,95.27
2022-12-14T14:34:37.569Z,96.37
2022-12-14T14:37:38.598Z,94.85
2022-12-14T14:40:23.519Z,95.49
2022-12-14T14:43:06.564Z,95.32
2022-12-14T14:45:49.936Z,95.87
2022-12-14T14:48:34.883Z,95.03
2022-12-14T14:51:08.759Z,95.02
2022-12-14T14:53:36.827Z,97.65
2022-12-14T14:56:32.344Z,96.12
2022-12-14T14:59:16.841Z,95.58
2022-12-14T15:02:01.396Z,93.98
2022-12-14T15:04:41.366Z,93.33
2022-12-14T15:07:15.232Z,93.86
2022-12-14T15:09:59.518Z,95.07
2022-12-14T15:12:37.201Z,95.90
2022-12-14T15:15:18.646Z,96.41
2022-12-14T15:17:45.783Z,96.49
2022-12-14T15:20:40.044Z,95.73
2022-12-14T15:23:07.146Z,96.58
2022-12-14T15:25:33.757Z,97.03
2022-12-14T15:28:10.216Z,96.32
2022-12-14T15:30:36.861Z,97.41
2022-12-14T15:33:24.975Z,98.47
2022-12-14T15:35:51.555Z,97.35
2022-12-14T15:38:22.692Z,98.41
2022-12-14T15:41:00.651Z,98.32
2022-12-14T15:43:28.080Z,98.05
2022-12-14T15:46:04.040Z,98.14
2022-12-14T15:48:34.292Z,96.52
2022-12-14T15:51:04.365Z,97.43
2022-12-14T15:53:37.643Z,97.32
2022-12-14T15:56:18.143Z,97.35
2022-12-14T15:58:45.156Z,96.59
2022-12-14T16:01:18.723Z,97.37
2022-12-14T16:03:58.760Z,97.98
2022-12-14T16:06:28.890Z,97.02
2022-12-14T16:09:18.294Z,96.66
2022-12-14T16:11:48.205Z,97.97
2022-12-14T16:14:29.828Z,98.57
2022-12-14T16:16:56.649Z,97.38
2022-12-14T16:19:31.199Z,97.69
2022-12-14T16:22:09.869Z,99.35
2022-12-14T16:24:38.232Z,98.19
2022-12-14T16:27:04.898Z,98.42
2022-12-14T16:29:33.423Z,98.17
2022-12-14T16:32:14.590Z,98.90
2022-12-14T16:34:47.518Z,99.84
2022-12-14T16:37:33.911Z,100.00
2022-12-14T16:40:00.888Z,100.00
2022-12-14T16:42:28.860Z,99.51
2022-12-14T16:44:55.341Z,98.81
2022-12-14T16:47:34.079Z,100.00
2022-12-14T16:50:01.037Z,100.00
2022-12-14T16:52:32.839Z,100.00
2022-12-14T16:55:20.443Z,100.00
2022-12-14T16:57:54.132Z,100.00
2022-12-14T17:00:29.823Z,100.00
2022-12-14T17:02:58.082Z,100.00
2022-12-14T17:05:26.357Z,100.00
2022-12-14T17:07:52.812Z,100.00
2022-12-14T17:10:25.158Z,100.00
2022-12-14T17:12:56.173Z,100.00
2022-12-14T17:15:24.827Z,100.00
2022-12-14T17:17:53.759Z,100.00
2022-12-14T17:20:24.473Z,100.00
2022-12-14T17:22:51.384Z,100.00
2022-12-14T17:25:18.419Z,100.00
2022-12-14T17:27:45.179Z,100.00
2022-12-14T17:30:18.480Z,100.00
2022-12-14T17:32:45.456Z,100.00
2022-12-14T17:35:20.380Z,100.00
2022-12-14T17:37:47.309Z,100.00
2022-12-14T17:40:16.455Z,100.00
2022-12-14T17:42:47.251Z,100.00
2022-12-14T17:45:30.373Z,100.00
2022-12-14T17:47:58.027Z,100.00
2022-12-14T17:50:28.056Z,100.00
2022-12-14T17:52:54.655Z,100.00
2022-12-14T17:55:26.871Z,100.00
2022-12-14T17:57:54.353Z,100.00
2022-12-14T18:00:43.277Z,100.00
2022-12-14T18:03:12.049Z,100.00
2022-12-14T18:05:46.481Z,100.00
2022-12-14T18:08:16.259Z,100.00
2022-12-14T18:10:43.152Z,100.00
2022-12-14T18:13:11.367Z,100.00
2022-12-14T18:15:41.873Z,100.00
2022-12-14T18:18:08.801Z,100.00
2022-12-14T18:20:36.488Z,100.00
2022-12-14T18:23:03.035Z,100.00
2022-12-14T18:25:35.239Z,100.00
2022-12-14T18:28:04.264Z,100.00
2022-12-14T18:30:38.690Z,100.00
2022-12-14T18:33:16.559Z,100.00
2022-12-14T18:35:44.617Z,100.00
2022-12-14T18:38:11.838Z,100.00
2022-12-14T18:40:39.447Z,100.00
2022-12-14T18:43:05.971Z,100.00
2022-12-14T18:45:34.338Z,100.00
2022-12-14T18:48:01.606Z,100.00
2022-12-14T18:50:28.943Z,100.00
2022-12-14T18:52:55.786Z,100.00
2022-12-14T18:55:28.480Z,100.00
2022-12-14T18:57:56.688Z,100.00
2022-12-14T19:00:25.426Z,100.00
2022-12-14T19:02:53.089Z,100.00
2022-12-14T19:05:25.557Z,100.00
2022-12-14T19:07:52.798Z,100.00
2022-12-14T19:10:22.538Z,100.00
2022-12-14T19:12:50.249Z,100.00
2022-12-14T19:15:20.026Z,100.00
2022-12-14T19:17:46.951Z,100.00
2022-12-14T19:20:15.200Z,100.00
2022-12-14T19:22:42.208Z,100.00
2022-12-14T19:25:09.560Z,100.00
2022-12-14T19:28:19.964Z,100.00
2022-12-14T19:30:24.113Z,100.00
2022-12-14T19:32:56.130Z,100.00
2022-12-14T19:35:24.169Z,100.00
2022-12-14T19:37:51.400Z,100.00
2022-12-14T19:40:18.677Z,100.00
2022-12-14T19:42:46.804Z,100.00
2022-12-14T19:45:14.196Z,100.00
2022-12-14T19:47:40.747Z,100.00
2022-12-14T19:50:07.883Z,100.00
2022-12-14T19:52:34.649Z,100.00
2022-12-14T19:55:01.869Z,100.00
2022-12-14T19:57:28.498Z,100.00
2022-12-14T19:59:56.947Z,100.00
2022-12-14T20:02:23.652Z,100.00
2022-12-14T20:04:50.348Z,100.00
2022-12-14T20:07:16.997Z,100.00
2022-12-14T20:09:43.449Z,100.00
2022-12-14T20:12:11.236Z,100.00
2022-12-14T20:14:42.600Z,100.00
2022-12-14T20:17:10.825Z,100.00
2022-12-14T20:19:39.043Z,100.00
2022-12-14T20:22:06.912Z,100.00
2022-12-14T20:24:33.551Z,100.00
2022-12-14T20:27:00.082Z,100.00
2022-12-14T20:29:27.565Z,100.00
2022-12-14T20:31:55.276Z,100.00
2022-12-14T20:34:22.408Z,100.00
2022-12-14T20:36:49.344Z,100.00
2022-12-14T20:39:15.876Z,100.00
2022-12-14T20:41:42.393Z,100.00
2022-12-14T20:44:11.849Z,100.00
2022-12-14T20:46:42.767Z,100.00
2022-12-14T20:49:16.014Z,100.00
2022-12-14T20:51:43.792Z,100.00
2022-12-14T20:54:13.363Z,100.00
2022-12-14T20:56:40.242Z,100.00
2022-12-14T20:59:08.008Z,100.00
2022-12-14T21:01:37.244Z,100.00
2022-12-14T21:04:04.449Z,100.00
2022-12-14T21:06:32.974Z,100.00
2022-12-14T21:09:05.587Z,100.00
2022-12-14T21:11:55.991Z,100.00
2022-12-14T21:14:24.418Z,100.00
2022-12-14T21:16:51.393Z,100.00
2022-12-14T21:19:18.066Z,100.00
2022-12-14T21:21:48.257Z,100.00
2022-12-14T21:24:37.272Z,100.00
2022-12-14T21:27:08.294Z,100.00
2022-12-14T21:29:34.847Z,100.00
2022-12-14T21:32:01.547Z,100.00
2022-12-14T21:34:29.185Z,100.00
2022-12-14T21:36:55.662Z,100.00
2022-12-14T21:39:22.245Z,100.00
2022-12-14T21:42:07.150Z,100.00
2022-12-14T21:44:36.741Z,100.00
2022-12-14T21:47:05.891Z,100.00
2022-12-14T21:49:32.491Z,100.00
2022-12-14T21:51:59.037Z,100.00
2022-12-14T21:54:26.162Z,100.00
2022-12-14T21:57:11.233Z,100.00
2022-12-14T21:59:40.794Z,100.00
2022-12-14T22:02:12.812Z,100.00
2022-12-14T22:04:40.201Z,100.00
2022-12-14T22:07:06.780Z,100.00
2022-12-14T22:09:33.245Z,100.00
2022-12-14T22:11:59.734Z,100.00
2022-12-14T22:14:26.297Z,100.00
2022-12-14T22:16:53.523Z,100.00
2022-12-14T22:19:24.489Z,100.00
2022-12-14T22:21:52.272Z,100.00
2022-12-14T22:24:20.666Z,100.00
2022-12-14T22:26:47.222Z,100.00
2022-12-14T22:29:15.366Z,100.00
2022-12-14T22:31:42.080Z,100.00
2022-12-14T22:34:15.485Z,100.00
2022-12-14T22:36:41.948Z,100.00
2022-12-14T22:39:09.389Z,100.00
2022-12-14T22:41:37.443Z,100.00
2022-12-14T22:44:04.994Z,100.00
2022-12-14T22:46:33.171Z,100.00
2022-12-14T22:49:00.121Z,100.00
2022-12-14T22:51:29.100Z,100.00
2022-12-14T22:53:56.237Z,100.00
2022-12-14T22:56:28.565Z,100.00
2022-12-14T22:59:18.418Z,100.00
2022-12-14T23:01:49.737Z,100.00
2022-12-14T23:04:17.770Z,100.00
2022-12-14T23:06:45.015Z,100.00
2022-12-14T23:09:30.428Z,100.00
2022-12-14T23:12:21.325Z,100.00
2022-12-14T23:15:07.607Z,100.00
2022-12-14T23:17:53.587Z,100.00
2022-12-14T23:20:38.887Z,100.00
2022-12-14T23:23:25.634Z,100.00
2022-12-14T23:26:10.590Z,100.00
2022-12-14T23:28:55.350Z,100.00
2022-12-14T23:31:40.216Z,100.00
2022-12-14T23:34:25.110Z,100.00
2022-12-14T23:37:12.691Z,100.00
2022-12-14T23:40:00.078Z,100.00
2022-12-14T23:42:44.966Z,100.00
2022-12-14T23:45:29.633Z,100.00
2022-12-14T23:48:15.005Z,100.00
2022-12-14T23:51:00.208Z,100.00
2022-12-14T23:53:45.348Z,100.00
2022-12-14T23:56:35.341Z,100.00
2022-12-14T23:59:22.788Z,100.00
